createdAt,value
2019-02-21T00:00:48.299Z,101718.78
2019-02-21T00:03:14.220Z,101713.41
2019-02-21T00:05:40.028Z,101716.95
2019-02-21T00:08:05.798Z,101717.30
2019-02-21T00:10:31.569Z,101717.13
2019-02-21T00:12:57.442Z,101710.45
2019-02-21T00:15:23.201Z,101706.25
2019-02-21T00:17:48.977Z,101701.73
2019-02-21T00:20:14.734Z,101703.91
2019-02-21T00:22:40.521Z,101700.88
2019-02-21T00:25:06.269Z,101705.73
2019-02-21T00:27:32.033Z,101703.44
2019-02-21T00:29:57.795Z,101705.26
2019-02-21T00:32:23.541Z,101707.81
2019-02-21T00:34:49.311Z,101707.81
2019-02-21T00:37:15.065Z,101714.23
2019-02-21T00:39:40.856Z,101713.72
2019-02-21T00:42:06.624Z,101715.58
2019-02-21T00:44:32.396Z,101715.58
2019-02-21T00:46:58.129Z,101719.78
2019-02-21T00:49:23.909Z,101720.78
2019-02-21T00:51:49.677Z,101728.20
2019-02-21T00:54:15.439Z,101728.55
2019-02-21T00:56:41.208Z,101721.61
2019-02-21T00:59:06.965Z,101732.66
2019-02-21T01:01:32.713Z,101731.53
2019-02-21T01:03:58.480Z,101730.49
2019-02-21T01:06:24.229Z,101731.66
2019-02-21T01:08:50.010Z,101731.96
2019-02-21T01:11:15.870Z,101733.44
2019-02-21T01:13:41.635Z,101729.09
2019-02-21T01:16:07.396Z,101731.14
2019-02-21T01:18:33.166Z,101731.45
2019-02-21T01:20:58.928Z,101727.63
2019-02-21T01:23:24.672Z,101725.72
2019-02-21T01:25:50.430Z,101720.00
2019-02-21T01:28:16.177Z,101721.73
2019-02-21T01:30:41.950Z,101717.36
2019-02-21T01:33:07.712Z,101709.94
2019-02-21T01:35:33.478Z,101717.92
2019-02-21T01:37:59.226Z,101718.61
2019-02-21T01:40:24.986Z,101717.09
2019-02-21T01:42:50.740Z,101717.61
2019-02-21T01:45:16.503Z,101720.13
2019-02-21T01:47:42.250Z,101713.23
2019-02-21T01:50:08.029Z,101715.06
2019-02-21T01:52:33.818Z,101723.64
2019-02-21T01:54:59.586Z,101719.44
2019-02-21T01:57:25.340Z,101711.37
2019-02-21T01:59:51.096Z,101717.48
2019-02-21T02:02:16.864Z,101713.92
2019-02-21T02:04:42.633Z,101712.80
2019-02-21T02:07:08.396Z,101710.76
2019-02-21T02:09:34.174Z,101719.17
2019-02-21T02:11:59.928Z,101723.55
2019-02-21T02:14:25.691Z,101722.39
2019-02-21T02:16:51.462Z,101720.52
2019-02-21T02:19:17.302Z,101719.52
2019-02-21T02:21:43.107Z,101717.66
2019-02-21T02:24:08.854Z,101719.35
2019-02-21T02:26:34.617Z,101720.21
2019-02-21T02:29:00.375Z,101714.80
2019-02-21T02:31:26.147Z,101713.80
2019-02-21T02:33:51.926Z,101719.83
2019-02-21T02:36:17.763Z,101715.80
2019-02-21T02:38:43.502Z,101709.03
2019-02-21T02:41:09.282Z,101718.95
2019-02-21T02:43:35.032Z,101707.33
2019-02-21T02:46:00.812Z,101707.30
2019-02-21T02:48:26.566Z,101711.49
2019-02-21T02:50:52.370Z,101711.41
2019-02-21T02:53:18.141Z,101717.61
2019-02-21T02:55:43.929Z,101708.07
2019-02-21T02:58:09.699Z,101718.30
2019-02-21T03:00:35.470Z,101720.17
2019-02-21T03:03:01.229Z,101721.64
2019-02-21T03:05:26.994Z,101716.27
2019-02-21T03:07:52.748Z,101717.42
2019-02-21T03:10:18.503Z,101722.45
2019-02-21T03:12:44.250Z,101721.77
2019-02-21T03:15:10.012Z,101722.11
2019-02-21T03:17:35.762Z,101724.63
2019-02-21T03:20:01.518Z,101733.02
2019-02-21T03:22:27.285Z,101726.22
2019-02-21T03:24:53.044Z,101732.63
2019-02-21T03:27:18.806Z,101732.98
2019-02-21T03:29:44.554Z,101731.59
2019-02-21T03:32:10.384Z,101730.71
2019-02-21T03:34:36.083Z,101736.72
2019-02-21T03:37:01.875Z,101727.80
2019-02-21T03:39:27.635Z,101730.64
2019-02-21T03:41:53.424Z,101727.45
2019-02-21T03:44:19.174Z,101722.38
2019-02-21T03:46:44.947Z,101725.11
2019-02-21T03:49:10.718Z,101723.58
2019-02-21T03:51:36.495Z,101722.59
2019-02-21T03:54:02.246Z,101721.55
2019-02-21T03:56:28.012Z,101725.92
2019-02-21T03:58:53.779Z,101724.53
2019-02-21T04:01:19.673Z,101718.67
2019-02-21T04:03:45.418Z,101722.70
2019-02-21T04:06:11.203Z,101722.01
2019-02-21T04:08:36.962Z,101714.30
2019-02-21T04:11:02.726Z,101712.95
2019-02-21T04:13:28.475Z,101709.41
2019-02-21T04:15:54.342Z,101708.58
2019-02-21T04:18:20.102Z,101707.53
2019-02-21T04:20:45.841Z,101708.70
2019-02-21T04:23:11.606Z,101698.48
2019-02-21T04:25:37.350Z,101691.76
2019-02-21T04:28:03.121Z,101682.01
2019-02-21T04:30:28.875Z,101672.61
2019-02-21T04:32:54.642Z,101671.22
2019-02-21T04:35:20.390Z,101674.55
2019-02-21T04:37:46.150Z,101666.83
2019-02-21T04:40:11.921Z,101692.34
2019-02-21T04:42:38.185Z,101694.52
2019-02-21T04:45:04.838Z,101699.88
2019-02-21T04:47:30.683Z,101709.81
2019-02-21T04:49:56.456Z,101711.14
2019-02-21T04:52:22.233Z,101704.37
2019-02-21T04:54:47.993Z,101704.91
2019-02-21T04:57:13.758Z,101698.93
2019-02-21T04:59:39.513Z,101695.63
2019-02-21T05:02:05.376Z,101712.09
2019-02-21T05:04:31.128Z,101700.64
2019-02-21T05:06:56.997Z,101703.84
2019-02-21T05:09:22.735Z,101712.03
2019-02-21T05:11:48.497Z,101708.98
2019-02-21T05:14:14.246Z,101708.81
2019-02-21T05:16:40.036Z,101701.56
2019-02-21T05:19:05.772Z,101701.16
2019-02-21T05:21:31.527Z,101708.66
2019-02-21T05:23:57.291Z,101702.72
2019-02-21T05:26:27.713Z,101700.66
2019-02-21T05:28:53.479Z,101703.92
2019-02-21T05:31:32.980Z,101702.55
2019-02-21T05:34:00.681Z,101694.18
2019-02-21T05:36:28.297Z,101694.23
2019-02-21T05:38:55.972Z,101691.73
2019-02-21T05:41:29.138Z,101695.83
2019-02-21T05:44:02.611Z,101701.03
2019-02-21T05:46:30.238Z,101689.92
2019-02-21T05:48:57.899Z,101687.61
2019-02-21T05:51:25.557Z,101686.23
2019-02-21T05:53:55.774Z,101690.61
2019-02-21T05:56:26.259Z,101688.12
2019-02-21T05:58:53.997Z,101689.30
2019-02-21T06:01:27.177Z,101683.63
2019-02-21T06:03:57.377Z,101691.20
2019-02-21T06:06:27.558Z,101686.31
2019-02-21T06:08:57.989Z,101688.89
2019-02-21T06:11:25.639Z,101690.70
2019-02-21T06:13:58.842Z,101689.30
2019-02-21T06:16:33.055Z,101693.03
2019-02-21T06:19:03.324Z,101689.70
2019-02-21T06:21:36.619Z,101697.94
2019-02-21T06:24:06.805Z,101693.45
2019-02-21T06:26:34.457Z,101695.66
2019-02-21T06:29:04.626Z,101697.70
2019-02-21T06:31:30.384Z,101694.85
2019-02-21T06:33:56.140Z,101700.17
2019-02-21T06:36:21.884Z,101695.13
2019-02-21T06:38:47.649Z,101688.41
2019-02-21T06:41:13.385Z,101687.07
2019-02-21T06:43:39.130Z,101699.88
2019-02-21T06:46:04.892Z,101694.85
2019-02-21T06:48:30.646Z,101699.77
2019-02-21T06:50:56.397Z,101704.30
2019-02-21T06:53:22.166Z,101699.95
2019-02-21T06:55:47.936Z,101698.66
2019-02-21T06:58:13.687Z,101715.12
2019-02-21T07:00:39.443Z,101723.23
2019-02-21T07:03:15.126Z,101728.55
2019-02-21T07:05:32.898Z,101725.56
2019-02-21T07:07:58.653Z,101722.88
2019-02-21T07:10:24.419Z,101725.91
2019-02-21T07:12:50.162Z,101721.89
2019-02-21T07:15:15.933Z,101729.78
2019-02-21T07:17:48.783Z,101726.56
2019-02-21T07:20:09.333Z,101727.39
2019-02-21T07:22:35.081Z,101740.70
2019-02-21T07:25:02.735Z,101740.92
2019-02-21T07:27:28.495Z,101750.16
2019-02-21T07:29:54.247Z,101745.54
2019-02-21T07:32:19.991Z,101753.20
2019-02-21T07:34:45.753Z,101760.96
2019-02-21T07:37:18.611Z,101759.32
2019-02-21T07:39:39.160Z,101769.04
2019-02-21T07:42:04.917Z,101777.08
2019-02-21T07:44:30.667Z,101782.29
2019-02-21T07:46:56.431Z,101789.70
2019-02-21T07:49:22.174Z,101792.85
2019-02-21T07:51:47.952Z,101805.94
2019-02-21T07:54:13.699Z,101800.56
2019-02-21T07:56:42.310Z,101807.63
2019-02-21T07:59:07.161Z,101801.61
2019-02-21T08:01:32.884Z,101806.92
2019-02-21T08:03:58.635Z,101810.44
2019-02-21T08:06:24.387Z,101814.64
2019-02-21T08:08:50.138Z,101813.99
2019-02-21T08:11:15.902Z,101809.45
2019-02-21T08:13:41.654Z,101797.23
2019-02-21T08:16:07.419Z,101805.77
2019-02-21T08:18:33.187Z,101812.03
2019-02-21T08:20:58.952Z,101805.98
2019-02-21T08:23:24.707Z,101808.05
2019-02-21T08:25:50.451Z,101805.07
2019-02-21T08:28:16.213Z,101799.05
2019-02-21T08:30:41.959Z,101794.97
2019-02-21T08:33:09.687Z,101796.55
2019-02-21T08:35:35.444Z,101806.84
2019-02-21T08:38:01.205Z,101807.19
2019-02-21T08:40:26.978Z,101794.80
2019-02-21T08:42:52.718Z,101799.17
2019-02-21T08:45:18.457Z,101790.30
2019-02-21T08:47:44.220Z,101787.80
2019-02-21T08:50:09.975Z,101770.78
2019-02-21T08:52:35.778Z,101775.44
2019-02-21T08:55:01.505Z,101768.08
2019-02-21T08:57:27.253Z,101769.52
2019-02-21T08:59:53.002Z,101775.13
2019-02-21T09:02:18.760Z,101766.59
2019-02-21T09:04:44.506Z,101764.33
2019-02-21T09:07:10.268Z,101758.74
2019-02-21T09:09:36.021Z,101756.74
2019-02-21T09:12:02.198Z,101748.45
2019-02-21T09:14:27.935Z,101746.55
2019-02-21T09:16:53.689Z,101746.55
2019-02-21T09:19:19.445Z,101742.46
2019-02-21T09:21:45.187Z,101737.61
2019-02-21T09:24:13.633Z,101746.92
2019-02-21T09:26:38.608Z,101740.99
2019-02-21T09:29:04.370Z,101740.99
2019-02-21T09:31:30.118Z,101748.01
2019-02-21T09:33:56.079Z,101744.95
2019-02-21T09:36:21.821Z,101763.78
2019-02-21T09:38:47.656Z,101755.36
2019-02-21T09:41:13.435Z,101760.55
2019-02-21T09:43:39.197Z,101763.96
2019-02-21T09:46:04.942Z,101770.70
2019-02-21T09:48:30.702Z,101774.88
2019-02-21T09:50:56.445Z,101773.77
2019-02-21T09:53:22.230Z,101770.56
2019-02-21T09:55:50.286Z,101776.16
2019-02-21T09:58:15.654Z,101769.77
2019-02-21T10:00:41.392Z,101766.87
2019-02-21T10:03:07.161Z,101773.88
2019-02-21T10:05:32.918Z,101779.94
2019-02-21T10:07:58.660Z,101778.91
2019-02-21T10:10:24.413Z,101770.70
2019-02-21T10:12:50.170Z,101769.84
2019-02-21T10:15:15.926Z,101777.08
2019-02-21T10:17:41.676Z,101786.50
2019-02-21T10:20:09.734Z,101787.67
2019-02-21T10:22:35.588Z,101790.67
2019-02-21T10:25:01.357Z,101785.15
2019-02-21T10:27:27.106Z,101787.89
2019-02-21T10:29:52.862Z,101792.92
2019-02-21T10:32:18.609Z,101795.66
2019-02-21T10:34:44.370Z,101801.82
2019-02-21T10:37:10.116Z,101808.20
2019-02-21T10:39:35.878Z,101806.94
2019-02-21T10:42:01.626Z,101812.80
2019-02-21T10:44:27.399Z,101812.84
2019-02-21T10:46:53.150Z,101817.66
2019-02-21T10:49:18.909Z,101808.06
2019-02-21T10:51:44.661Z,101805.20
2019-02-21T10:54:10.433Z,101797.89
2019-02-21T10:56:36.188Z,101807.00
2019-02-21T10:59:01.972Z,101809.04
2019-02-21T11:01:27.722Z,101816.11
2019-02-21T11:03:53.467Z,101815.25
2019-02-21T11:06:19.230Z,101813.42
2019-02-21T11:08:44.976Z,101813.59
2019-02-21T11:11:10.744Z,101817.12
2019-02-21T11:13:36.485Z,101809.73
2019-02-21T11:16:02.247Z,101810.31
2019-02-21T11:18:27.995Z,101809.93
2019-02-21T11:20:53.753Z,101806.24
2019-02-21T11:23:19.496Z,101813.05
2019-02-21T11:25:45.252Z,101809.87
2019-02-21T11:28:11.006Z,101808.39
2019-02-21T11:30:36.755Z,101805.63
2019-02-21T11:33:02.506Z,101813.18
2019-02-21T11:35:28.266Z,101813.73
2019-02-21T11:37:54.111Z,101804.86
2019-02-21T11:40:19.867Z,101815.46
2019-02-21T11:42:45.710Z,101817.16
2019-02-21T11:45:15.435Z,101819.22
2019-02-21T11:47:41.181Z,101808.11
2019-02-21T11:50:17.156Z,101806.10
2019-02-21T11:52:42.934Z,101808.08
2019-02-21T11:55:10.936Z,101808.08
2019-02-21T11:57:36.704Z,101816.84
2019-02-21T12:00:09.013Z,101816.84
2019-02-21T12:02:38.870Z,101817.46
2019-02-21T12:05:03.153Z,101820.22
2019-02-21T12:07:28.920Z,101820.22
2019-02-21T12:09:54.666Z,101823.40
2019-02-21T12:12:20.422Z,101818.16
2019-02-21T12:14:46.174Z,101817.02
2019-02-21T12:17:11.929Z,101818.50
2019-02-21T12:19:37.673Z,101819.91
2019-02-21T12:22:03.440Z,101828.75
2019-02-21T12:24:29.187Z,101826.47
2019-02-21T12:26:54.949Z,101843.00
2019-02-21T12:29:20.695Z,101844.61
2019-02-21T12:31:46.534Z,101839.23
2019-02-21T12:34:12.301Z,101845.66
2019-02-21T12:36:38.058Z,101848.73
2019-02-21T12:39:04.706Z,101851.72
2019-02-21T12:41:30.487Z,101841.19
2019-02-21T12:43:56.232Z,101841.19
2019-02-21T12:46:21.981Z,101847.92
2019-02-21T12:48:47.740Z,101844.58
2019-02-21T12:51:13.479Z,101847.30
2019-02-21T12:53:39.255Z,101847.95
2019-02-21T12:56:05.016Z,101847.39
2019-02-21T12:58:30.777Z,101853.91
2019-02-21T13:00:56.527Z,101855.90
2019-02-21T13:03:22.283Z,101850.52
2019-02-21T13:05:48.031Z,101857.45
2019-02-21T13:08:13.786Z,101861.84
2019-02-21T13:10:39.548Z,101860.71
2019-02-21T13:13:05.300Z,101858.67
2019-02-21T13:15:31.051Z,101855.50
2019-02-21T13:17:56.817Z,101859.02
2019-02-21T13:20:22.551Z,101861.38
2019-02-21T13:22:48.314Z,101861.02
2019-02-21T13:25:15.267Z,101862.28
2019-02-21T13:27:41.028Z,101857.48
2019-02-21T13:30:09.185Z,101851.63
2019-02-21T13:32:34.938Z,101847.13
2019-02-21T13:35:00.693Z,101850.64
2019-02-21T13:37:29.112Z,101846.00
2019-02-21T13:39:54.106Z,101844.34
2019-02-21T13:42:19.854Z,101839.14
2019-02-21T13:44:45.614Z,101839.14
2019-02-21T13:47:11.356Z,101830.33
2019-02-21T13:49:37.122Z,101836.05
2019-02-21T13:52:02.871Z,101833.89
2019-02-21T13:54:28.660Z,101842.44
2019-02-21T13:56:54.398Z,101846.42
2019-02-21T13:59:20.174Z,101854.02
2019-02-21T14:01:45.967Z,101848.64
2019-02-21T14:04:11.696Z,101845.27
2019-02-21T14:06:37.442Z,101855.38
2019-02-21T14:09:04.305Z,101857.58
2019-02-21T14:11:30.786Z,101865.08
2019-02-21T14:13:56.632Z,101864.73
2019-02-21T14:16:22.378Z,101861.65
2019-02-21T14:18:48.147Z,101865.50
2019-02-21T14:21:13.885Z,101865.27
2019-02-21T14:23:39.653Z,101869.01
2019-02-21T14:26:05.397Z,101863.20
2019-02-21T14:28:31.147Z,101862.52
2019-02-21T14:30:56.907Z,101873.92
2019-02-21T14:33:22.656Z,101875.96
2019-02-21T14:35:48.438Z,101880.64
2019-02-21T14:38:14.176Z,101882.64
2019-02-21T14:40:39.935Z,101886.28
2019-02-21T14:43:05.844Z,101887.95
2019-02-21T14:45:31.605Z,101895.16
2019-02-21T14:47:57.349Z,101887.63
2019-02-21T14:50:23.110Z,101888.14
2019-02-21T14:52:48.875Z,101882.94
2019-02-21T14:55:16.045Z,101887.27
2019-02-21T14:57:41.797Z,101883.52
2019-02-21T15:00:13.897Z,101879.00
2019-02-21T15:02:39.654Z,101887.20
2019-02-21T15:05:05.650Z,101887.16
2019-02-21T15:07:31.414Z,101904.63
2019-02-21T15:09:57.199Z,101904.63
2019-02-21T15:12:22.968Z,101912.05
2019-02-21T15:14:48.744Z,101907.54
2019-02-21T15:17:14.502Z,101912.27
2019-02-21T15:19:40.248Z,101915.73
2019-02-21T15:22:06.074Z,101921.98
2019-02-21T15:24:31.827Z,101918.30
2019-02-21T15:27:08.170Z,101915.80
2019-02-21T15:29:25.248Z,101911.41
2019-02-21T15:31:51.015Z,101910.52
2019-02-21T15:34:16.757Z,101915.44
2019-02-21T15:36:42.540Z,101916.73
2019-02-21T15:39:08.295Z,101907.66
2019-02-21T15:41:34.043Z,101903.62
2019-02-21T15:43:59.814Z,101910.80
2019-02-21T15:46:25.590Z,101907.08
2019-02-21T15:48:51.338Z,101912.56
2019-02-21T15:51:17.092Z,101910.28
2019-02-21T15:53:42.864Z,101915.09
2019-02-21T15:56:08.635Z,101913.39
2019-02-21T15:58:34.383Z,101912.22
2019-02-21T16:01:00.165Z,101917.89
2019-02-21T16:03:25.917Z,101921.23
2019-02-21T16:05:51.660Z,101926.36
2019-02-21T16:08:17.423Z,101926.71
2019-02-21T16:10:43.166Z,101918.46
2019-02-21T16:13:09.030Z,101921.95
2019-02-21T16:15:35.163Z,101917.30
2019-02-21T16:18:01.028Z,101915.95
2019-02-21T16:20:26.807Z,101916.60
2019-02-21T16:22:52.542Z,101909.53
2019-02-21T16:25:23.854Z,101917.12
2019-02-21T16:27:49.621Z,101928.16
2019-02-21T16:30:15.381Z,101937.33
2019-02-21T16:32:41.149Z,101935.85
2019-02-21T16:35:09.498Z,101936.69
2019-02-21T16:37:35.265Z,101933.00
2019-02-21T16:40:01.331Z,101941.52
2019-02-21T16:42:27.093Z,101935.50
2019-02-21T16:44:52.851Z,101938.32
2019-02-21T16:47:18.641Z,101930.31
2019-02-21T16:49:44.386Z,101934.51
2019-02-21T16:52:10.160Z,101935.34
2019-02-21T16:54:35.917Z,101933.59
2019-02-21T16:57:01.688Z,101933.59
2019-02-21T16:59:27.447Z,101936.98
2019-02-21T17:01:53.197Z,101941.01
2019-02-21T17:04:18.950Z,101942.00
2019-02-21T17:06:44.696Z,101952.40
2019-02-21T17:09:10.456Z,101954.42
2019-02-21T17:11:36.203Z,101954.84
2019-02-21T17:14:02.067Z,101965.59
2019-02-21T17:16:27.814Z,101967.64
2019-02-21T17:18:55.972Z,101964.59
2019-02-21T17:21:21.251Z,101977.49
2019-02-21T17:23:46.991Z,101984.92
2019-02-21T17:26:12.736Z,101978.48
2019-02-21T17:28:38.504Z,101981.72
2019-02-21T17:31:04.246Z,101984.56
2019-02-21T17:33:30.010Z,101976.50
2019-02-21T17:35:55.765Z,101981.88
2019-02-21T17:38:21.532Z,101984.08
2019-02-21T17:40:47.275Z,101980.47
2019-02-21T17:43:13.033Z,101984.15
2019-02-21T17:45:38.775Z,101983.86
2019-02-21T17:48:04.541Z,101981.94
2019-02-21T17:50:30.353Z,101988.79
2019-02-21T17:52:56.055Z,101998.61
2019-02-21T17:55:21.814Z,101997.45
2019-02-21T17:57:47.664Z,102003.66
2019-02-21T18:00:17.622Z,102020.33
2019-02-21T18:02:43.394Z,102020.11
2019-02-21T18:05:09.459Z,102026.92
2019-02-21T18:07:36.685Z,102031.08
2019-02-21T18:10:05.384Z,102032.48
2019-02-21T18:12:31.138Z,102025.48
2019-02-21T18:14:56.907Z,102025.42
2019-02-21T18:17:22.660Z,102033.31
2019-02-21T18:19:48.514Z,102036.42
2019-02-21T18:22:14.266Z,102036.01
2019-02-21T18:24:40.034Z,102038.21
2019-02-21T18:27:05.782Z,102038.21
2019-02-21T18:29:31.552Z,102041.61
2019-02-21T18:31:57.297Z,102042.80
2019-02-21T18:34:23.061Z,102045.28
2019-02-21T18:36:48.799Z,102046.36
2019-02-21T18:39:15.163Z,102046.20
2019-02-21T18:41:40.918Z,102044.58
2019-02-21T18:44:06.662Z,102048.45
2019-02-21T18:46:32.422Z,102053.13
2019-02-21T18:48:58.164Z,102057.31
2019-02-21T18:51:23.931Z,102055.81
2019-02-21T18:53:49.703Z,102067.42
2019-02-21T18:56:15.458Z,102067.77
2019-02-21T18:58:41.205Z,102076.41
2019-02-21T19:01:06.961Z,102068.85
2019-02-21T19:03:32.704Z,102073.23
2019-02-21T19:05:58.468Z,102066.64
2019-02-21T19:08:24.216Z,102081.37
2019-02-21T19:10:49.984Z,102083.75
2019-02-21T19:13:15.734Z,102084.97
2019-02-21T19:15:41.707Z,102096.44
2019-02-21T19:18:07.465Z,102106.55
2019-02-21T19:20:33.334Z,102120.97
2019-02-21T19:22:59.088Z,102125.91
2019-02-21T19:25:24.846Z,102128.87
2019-02-21T19:27:50.593Z,102130.09
2019-02-21T19:30:25.536Z,102125.28
2019-02-21T19:32:50.698Z,102131.09
2019-02-21T19:35:16.465Z,102133.34
2019-02-21T19:37:42.227Z,102140.70
2019-02-21T19:40:08.868Z,102142.39
2019-02-21T19:42:34.635Z,102143.86
2019-02-21T19:45:00.396Z,102146.85
2019-02-21T19:47:26.256Z,102147.48
2019-02-21T19:49:52.347Z,102152.23
2019-02-21T19:52:18.216Z,102154.12
2019-02-21T19:54:44.055Z,102158.16
2019-02-21T19:57:09.971Z,102153.92
2019-02-21T19:59:35.844Z,102157.64
2019-02-21T20:02:01.766Z,102162.98
2019-02-21T20:04:27.652Z,102164.37
2019-02-21T20:06:53.632Z,102164.31
2019-02-21T20:09:19.913Z,102162.34
2019-02-21T20:11:45.726Z,102159.58
2019-02-21T20:14:11.579Z,102165.86
2019-02-21T20:16:37.458Z,102171.23
2019-02-21T20:19:03.415Z,102179.14
2019-02-21T20:21:29.294Z,102183.96
2019-02-21T20:23:55.140Z,102190.25
2019-02-21T20:26:21.002Z,102190.84
2019-02-21T20:28:46.777Z,102190.60
2019-02-21T20:31:12.638Z,102204.74
2019-02-21T20:33:38.473Z,102198.38
2019-02-21T20:36:04.307Z,102208.66
2019-02-21T20:38:32.365Z,102208.34
2019-02-21T20:40:57.973Z,102208.70
2019-02-21T20:43:23.843Z,102215.66
2019-02-21T20:45:52.997Z,102215.93
2019-02-21T20:48:17.540Z,102213.39
2019-02-21T20:50:43.401Z,102219.17
2019-02-21T20:53:09.551Z,102223.70
2019-02-21T20:55:43.359Z,102237.51
2019-02-21T20:58:03.180Z,102233.13
2019-02-21T21:00:29.067Z,102243.36
2019-02-21T21:02:54.910Z,102241.03
2019-02-21T21:05:21.660Z,102242.45
2019-02-21T21:07:48.498Z,102241.61
2019-02-21T21:10:16.159Z,102245.41
2019-02-21T21:12:42.054Z,102243.98
2019-02-21T21:15:09.730Z,102255.38
2019-02-21T21:17:35.660Z,102259.91
2019-02-21T21:20:01.453Z,102267.61
2019-02-21T21:22:27.256Z,102267.82
2019-02-21T21:24:53.073Z,102273.43
2019-02-21T21:27:18.879Z,102275.61
2019-02-21T21:29:44.734Z,102286.36
2019-02-21T21:32:10.484Z,102293.79
2019-02-21T21:34:36.243Z,102291.37
2019-02-21T21:37:01.987Z,102297.82
2019-02-21T21:39:27.747Z,102306.66
2019-02-21T21:41:53.512Z,102306.58
2019-02-21T21:44:19.281Z,102317.38
2019-02-21T21:46:45.137Z,102323.17
2019-02-21T21:49:10.904Z,102327.56
2019-02-21T21:51:36.659Z,102319.62
2019-02-21T21:54:02.426Z,102322.37
2019-02-21T21:56:28.194Z,102312.07
2019-02-21T21:58:53.952Z,102313.56
2019-02-21T22:01:19.713Z,102315.08
2019-02-21T22:03:45.452Z,102318.55
2019-02-21T22:06:11.219Z,102321.44
2019-02-21T22:08:36.961Z,102321.37
2019-02-21T22:11:02.720Z,102331.47
2019-02-21T22:13:28.462Z,102337.50
2019-02-21T22:15:54.226Z,102332.81
2019-02-21T22:18:19.970Z,102330.18
2019-02-21T22:20:45.734Z,102340.45
2019-02-21T22:23:11.482Z,102344.02
2019-02-21T22:25:37.428Z,102347.64
2019-02-21T22:28:03.186Z,102351.25
2019-02-21T22:30:28.934Z,102351.14
2019-02-21T22:32:54.696Z,102358.63
2019-02-21T22:35:20.441Z,102363.23
2019-02-21T22:37:46.201Z,102366.32
2019-02-21T22:40:20.751Z,102360.33
2019-02-21T22:42:46.516Z,102361.31
2019-02-21T22:45:12.270Z,102366.53
2019-02-21T22:47:38.032Z,102373.39
2019-02-21T22:50:10.296Z,102380.38
2019-02-21T22:52:36.055Z,102390.20
2019-02-21T22:55:09.636Z,102388.17
2019-02-21T22:57:31.302Z,102390.13
2019-02-21T22:59:57.057Z,102391.12
2019-02-21T23:02:23.211Z,102392.56
2019-02-21T23:04:55.930Z,102390.20
2019-02-21T23:07:25.491Z,102399.03
2019-02-21T23:09:51.239Z,102400.52
2019-02-21T23:12:17.002Z,102413.69
2019-02-21T23:14:42.748Z,102406.97
2019-02-21T23:17:08.502Z,102414.38
2019-02-21T23:19:34.344Z,102409.16
2019-02-21T23:22:00.097Z,102404.28
2019-02-21T23:24:25.851Z,102413.33
2019-02-21T23:26:53.519Z,102416.23
2019-02-21T23:29:19.258Z,102415.03
2019-02-21T23:31:44.996Z,102413.69
2019-02-21T23:34:18.423Z,102421.81
2019-02-21T23:36:44.177Z,102427.19
2019-02-21T23:39:09.934Z,102437.81
2019-02-21T23:41:35.687Z,102435.25
2019-02-21T23:44:01.455Z,102450.64
2019-02-21T23:46:27.195Z,102449.08
2019-02-21T23:48:52.950Z,102459.34
2019-02-21T23:51:18.692Z,102466.86
2019-02-21T23:53:44.539Z,102465.77
2019-02-21T23:56:10.317Z,102472.85
2019-02-21T23:58:36.084Z,102473.79
